Time;durP1;ratioP1;P1;durP2;ratioP2;P2;SDS_P1;SDS_P2;PMS_P1;PMS_P2;Temp;Humidity;BMP_temperature;BMP_pressure;BME280_temperature;BME280_humidity;BME280_pressure;Samples;Min_cycle;Max_cycle;Signal;HPM_P1;HPM_P2
2021/12/18 00:01:36;;;;;;;28.80;12.65;;;;;;;7.23;100.00;103731.63;4993753;28;20049;-71
2021/12/18 00:04:06;;;;;;;25.27;11.57;;;;;;;7.23;100.00;103726.28;4997032;28;20125;-70
2021/12/18 00:06:32;;;;;;;26.98;11.75;;;;;;;7.07;100.00;103704.78;4990371;28;20145;-70
2021/12/18 00:09:01;;;;;;;27.38;11.15;;;;;;;7.23;100.00;103731.63;4993446;28;20037;-71
2021/12/18 00:11:27;;;;;;;26.85;11.35;;;;;;;7.21;100.00;103728.28;4994402;28;20030;-70
2021/12/18 00:13:52;;;;;;;30.33;12.30;;;;;;;7.17;100.00;103729.59;4991610;28;20297;-70
2021/12/18 00:16:18;;;;;;;22.73;10.82;;;;;;;7.19;100.00;103724.94;4993466;28;20046;-71
2021/12/18 00:18:46;;;;;;;21.73;9.27;;;;;;;7.15;100.00;103729.72;4991903;28;20045;-70
2021/12/18 00:21:17;;;;;;;25.02;10.68;;;;;;;7.14;100.00;103725.38;4993582;28;20045;-70
2021/12/18 00:23:43;;;;;;;21.05;8.95;;;;;;;7.15;100.00;103729.72;5007105;28;20084;-70
2021/12/18 00:26:08;;;;;;;17.15;7.20;;;;;;;7.08;100.00;103728.63;4991863;28;20493;-70
2021/12/18 00:28:34;;;;;;;16.38;6.38;;;;;;;7.05;100.00;103722.78;5000706;28;20033;-70
2021/12/18 00:31:03;;;;;;;12.80;5.88;;;;;;;7.01;100.00;103728.44;4991347;28;20029;-70
2021/12/18 00:33:31;;;;;;;16.55;6.53;;;;;;;7.07;100.00;103732.31;4970317;28;20099;-70
2021/12/18 00:36:01;;;;;;;15.43;6.30;;;;;;;7.09;100.00;103727.69;4997966;28;20091;-71
2021/12/18 00:38:30;;;;;;;16.55;6.90;;;;;;;7.06;100.00;103719.94;4993616;28;20029;-70
2021/12/18 00:41:13;;;;;;;19.52;7.60;;;;;;;6.96;100.00;103709.34;4998396;28;20038;-71
2021/12/18 00:46:25;;;;;;;19.98;8.30;;;;;;;6.99;100.00;103729.53;5000674;28;20022;-70
2021/12/18 00:48:52;;;;;;;20.40;7.78;;;;;;;6.97;100.00;103729.69;4992101;28;20620;-71
2021/12/18 00:51:20;;;;;;;22.70;9.00;;;;;;;6.99;100.00;103724.22;5001178;28;20075;-70
2021/12/18 00:53:45;;;;;;;23.50;9.63;;;;;;;7.01;100.00;103728.44;4992433;28;21805;-70
2021/12/18 00:56:12;;;;;;;24.20;9.27;;;;;;;7.05;100.00;103723.63;4990888;28;20148;-69
2021/12/18 00:58:40;;;;;;;24.70;9.43;;;;;;;7.07;100.00;103726.13;4994941;28;20037;-70
2021/12/18 01:01:10;;;;;;;23.50;10.10;;;;;;;7.06;100.00;103721.78;4992547;28;20533;-70
2021/12/18 01:03:37;;;;;;;19.77;8.20;;;;;;;6.98;100.00;103711.84;4990860;28;20037;-70
2021/12/18 01:06:05;;;;;;;20.67;7.88;;;;;;;6.99;100.00;103724.22;4981366;28;20041;-70
2021/12/18 01:08:31;;;;;;;17.92;7.28;;;;;;;6.95;100.00;103729.03;4995550;28;20326;-70
2021/12/18 01:13:37;;;;;;;20.13;8.30;;;;;;;6.86;100.00;103731.75;4996238;28;20096;-70
2021/12/18 01:16:16;;;;;;;20.65;8.27;;;;;;;6.87;100.00;103723.59;4991279;28;20508;-70
2021/12/18 01:24:16;;;;;;;18.77;7.82;;;;;;;6.83;100.00;103732.88;4991355;28;20033;-70
2021/12/18 01:26:47;;;;;;;19.08;7.78;;;;;;;6.79;100.00;103720.84;4991396;28;20041;-70
2021/12/18 01:29:15;;;;;;;20.77;8.10;;;;;;;6.67;100.00;103719.34;5006954;28;20252;-70
2021/12/18 01:31:43;;;;;;;17.95;7.18;;;;;;;6.80;100.00;103735.00;4992127;28;20037;-71
2021/12/18 01:34:08;;;;;;;16.23;6.95;;;;;;;6.79;100.00;103731.50;4990836;28;20033;-69
2021/12/18 01:36:34;;;;;;;17.75;7.90;;;;;;;6.74;100.00;103709.75;4990499;28;20057;-70
2021/12/18 01:39:03;;;;;;;17.15;7.22;;;;;;;6.83;100.00;103730.19;4989978;28;20034;-70
2021/12/18 01:41:37;;;;;;;16.13;7.20;;;;;;;6.82;100.00;103722.34;4995985;28;20139;-70
2021/12/18 01:44:50;;;;;;;19.02;7.32;;;;;;;6.81;100.00;103732.19;4990068;28;20112;-71
2021/12/18 01:52:44;;;;;;;23.45;7.95;;;;;;;6.71;100.00;103712.72;4990356;28;20046;-70
2021/12/18 01:55:12;;;;;;;23.02;8.27;;;;;;;6.74;100.00;103717.75;5005333;28;20050;-70
2021/12/18 01:57:38;;;;;;;19.90;8.00;;;;;;;6.74;100.00;103715.09;4988972;28;20049;-70
2021/12/18 02:00:38;;;;;;;22.50;7.88;;;;;;;6.74;100.00;103715.94;4979369;28;20041;-70
2021/12/18 02:03:06;;;;;;;21.27;7.67;;;;;;;6.74;100.00;103718.59;4991037;28;20768;-76
2021/12/18 02:05:32;;;;;;;15.73;6.45;;;;;;;6.69;100.00;103717.38;4990649;28;20026;-75
2021/12/18 02:08:00;;;;;;;18.83;6.72;;;;;;;6.75;100.00;103722.94;4999462;28;20516;-75
2021/12/18 02:10:29;;;;;;;17.38;6.45;;;;;;;6.74;100.00;103725.75;4994267;28;20124;-75
2021/12/18 02:13:10;;;;;;;17.92;6.25;;;;;;;6.68;100.00;103710.38;4995551;28;20034;-76
2021/12/18 02:21:17;;;;;;;16.00;5.85;;;;;;;6.59;100.00;103714.75;4990344;28;20136;-75
2021/12/18 02:23:43;;;;;;;12.52;5.40;;;;;;;6.59;100.00;103721.91;4990586;28;20423;-75
2021/12/18 02:26:12;;;;;;;14.60;5.20;;;;;;;6.53;100.00;103706.50;4990666;28;20041;-74
2021/12/18 02:28:37;;;;;;;11.60;4.82;;;;;;;6.43;100.00;103704.75;4990896;28;20460;-74
2021/12/18 02:31:04;;;;;;;14.80;4.85;;;;;;;6.48;100.00;103714.94;4990450;28;20050;-75
2021/12/18 02:33:31;;;;;;;13.15;5.05;;;;;;;6.46;100.00;103707.09;5005301;28;20036;-76
2021/12/18 02:36:03;;;;;;;12.80;4.80;;;;;;;6.44;100.00;103716.25;4989198;28;20048;-75
2021/12/18 02:38:59;;;;;;;19.83;5.60;;;;;;;6.34;100.00;103710.09;4990110;28;20095;-75
2021/12/18 02:44:04;;;;;;;22.38;5.70;;;;;;;6.40;100.00;103710.34;4997731;28;20316;-76
2021/12/18 02:46:32;;;;;;;20.00;5.18;;;;;;;6.37;100.00;103707.16;4988993;28;20060;-76
2021/12/18 02:49:05;;;;;;;19.00;5.60;;;;;;;6.36;100.00;103710.81;4989916;28;20124;-76
2021/12/18 02:51:33;;;;;;;17.58;5.30;;;;;;;6.28;100.00;103697.34;4989234;28;20132;-76
2021/12/18 02:54:01;;;;;;;21.38;6.13;;;;;;;6.31;100.00;103710.38;4990319;28;20362;-76
2021/12/18 02:56:33;;;;;;;26.73;6.65;;;;;;;6.30;100.00;103706.03;4990298;28;20236;-76
2021/12/18 02:59:06;;;;;;;27.52;6.60;;;;;;;6.34;100.00;103707.41;4990122;28;20033;-76
2021/12/18 03:01:36;;;;;;;22.08;6.18;;;;;;;6.36;100.00;103708.13;4989559;28;20565;-75
2021/12/18 03:04:11;;;;;;;22.48;7.15;;;;;;;6.36;100.00;103713.47;4990107;28;20034;-75
2021/12/18 03:06:43;;;;;;;22.98;7.53;;;;;;;6.33;100.00;103703.91;5005425;28;20041;-76
2021/12/18 03:25:28;;;;;;;38.95;8.52;;;;;;;6.32;100.00;103710.22;5007245;28;20034;-76
2021/12/18 03:27:59;;;;;;;26.35;9.02;;;;;;;6.30;100.00;103701.56;4992446;28;20052;-76
2021/12/18 03:30:24;;;;;;;38.83;9.25;;;;;;;6.29;100.00;103704.38;4998797;28;20045;-76
2021/12/18 03:32:55;;;;;;;31.70;8.88;;;;;;;6.33;100.00;103701.25;5007924;28;20033;-76
2021/12/18 03:35:21;;;;;;;27.75;9.30;;;;;;;6.33;100.00;103695.06;4998423;28;20053;-76
2021/12/18 03:37:47;;;;;;;35.72;9.20;;;;;;;6.37;100.00;103707.97;5002893;28;20060;-76
2021/12/18 03:40:15;;;;;;;40.33;10.32;;;;;;;6.33;100.00;103693.25;5007816;28;20099;-76
2021/12/18 03:42:44;;;;;;;54.53;9.70;;;;;;;6.30;100.00;103688.22;5008190;28;20045;-76
2021/12/18 03:45:11;;;;;;;57.28;9.55;;;;;;;6.31;100.00;103687.22;4993139;28;20616;-76
2021/12/18 03:47:39;;;;;;;40.20;9.02;;;;;;;6.34;100.00;103707.41;5008162;28;20038;-76
2021/12/18 03:50:08;;;;;;;28.42;7.88;;;;;;;6.32;100.00;103694.25;5006876;28;20033;-76
2021/12/18 03:52:38;;;;;;;30.08;8.15;;;;;;;6.35;100.00;103685.97;5008442;28;20952;-76
2021/12/18 03:55:06;;;;;;;32.45;8.18;;;;;;;6.27;100.00;103685.84;4996979;28;20079;-76
2021/12/18 03:57:37;;;;;;;19.13;6.35;;;;;;;6.32;100.00;103690.72;5007785;28;20042;-76
2021/12/18 04:00:06;;;;;;;16.90;5.65;;;;;;;6.24;100.00;103680.78;4999426;28;20119;-76
2021/12/18 04:02:32;;;;;;;22.33;5.97;;;;;;;6.21;100.00;103686.44;4997371;28;20450;-76
2021/12/18 04:04:57;;;;;;;12.50;4.10;;;;;;;6.17;100.00;103690.38;4992768;28;20038;-76
2021/12/18 04:07:25;;;;;;;11.90;3.20;;;;;;;6.12;100.00;103676.66;4976161;28;20038;-77
2021/12/18 04:09:53;;;;;;;10.55;3.47;;;;;;;6.20;100.00;103684.75;5007617;28;20049;-75
2021/12/18 04:12:22;;;;;;;10.32;3.38;;;;;;;6.14;100.00;103685.34;4992038;28;20045;-75
2021/12/18 04:14:50;;;;;;;10.27;3.38;;;;;;;6.13;100.00;103683.66;4993217;28;20053;-76
2021/12/18 04:17:18;;;;;;;11.93;3.38;;;;;;;6.10;100.00;103695.44;4992701;28;20154;-75
2021/12/18 04:19:43;;;;;;;12.70;3.50;;;;;;;6.08;100.00;103689.41;4991526;28;20047;-76
2021/12/18 04:22:09;;;;;;;12.15;3.90;;;;;;;6.05;100.00;103691.53;4991390;28;20068;-76
2021/12/18 04:24:34;;;;;;;9.75;2.75;;;;;;;6.10;100.00;103681.25;4992078;28;20029;-76
2021/12/18 04:27:02;;;;;;;14.98;3.15;;;;;;;6.09;100.00;103687.59;4995958;28;20038;-76
2021/12/18 04:29:27;;;;;;;12.95;2.53;;;;;;;6.15;100.00;103697.66;5001417;28;20461;-76
2021/12/18 04:31:53;;;;;;;8.82;2.67;;;;;;;6.12;100.00;103698.81;4991809;28;20037;-76
2021/12/18 04:34:18;;;;;;;12.20;3.33;;;;;;;6.11;100.00;103696.31;4992584;28;20129;-76
2021/12/18 04:36:44;;;;;;;12.13;3.60;;;;;;;6.07;100.00;103698.41;4997761;28;20103;-76
2021/12/18 04:39:14;;;;;;;12.10;3.40;;;;;;;6.03;100.00;103690.84;4992304;28;20120;-75
2021/12/18 04:41:49;;;;;;;10.60;3.90;;;;;;;5.97;100.00;103697.59;4995466;28;20161;-76
2021/12/18 04:44:14;;;;;;;11.43;3.97;;;;;;;5.90;100.00;103692.00;4993212;28;20037;-76
2021/12/18 04:46:43;;;;;;;15.43;4.78;;;;;;;5.87;100.00;103697.59;4992725;28;20033;-75
2021/12/18 04:49:09;;;;;;;13.60;4.68;;;;;;;5.79;100.00;103685.97;4995065;28;20123;-75
2021/12/18 04:51:34;;;;;;;14.02;4.40;;;;;;;5.78;100.00;103678.94;4991573;28;20497;-76
2021/12/18 04:54:02;;;;;;;15.73;4.15;;;;;;;5.81;100.00;103694.66;4991332;28;20103;-76
2021/12/18 04:56:27;;;;;;;11.30;4.43;;;;;;;5.84;100.00;103697.03;4991339;28;20026;-76
2021/12/18 04:58:55;;;;;;;14.73;4.05;;;;;;;5.79;100.00;103692.13;4991844;28;20874;-76
2021/12/18 05:01:23;;;;;;;30.00;3.70;;;;;;;5.79;100.00;103705.47;4992715;28;20733;-76
2021/12/18 05:03:49;;;;;;;20.80;3.78;;;;;;;5.71;100.00;103709.81;4991443;28;20091;-76
2021/12/18 05:06:15;;;;;;;15.43;2.70;;;;;;;5.69;100.00;103717.09;4992408;28;20030;-76
2021/12/18 05:08:41;;;;;;;17.38;2.30;;;;;;;5.68;100.00;103702.94;4996154;28;20075;-76
2021/12/18 05:11:07;;;;;;;19.42;2.20;;;;;;;5.67;100.00;103703.91;4992231;28;20564;-75
2021/12/18 05:13:33;;;;;;;15.15;2.25;;;;;;;5.65;100.00;103700.56;5007441;28;20060;-76
2021/12/18 05:16:01;;;;;;;12.88;2.10;;;;;;;5.56;100.00;103702.25;4991923;28;20046;-76
2021/12/18 05:18:27;;;;;;;18.55;2.20;;;;;;;5.63;100.00;103702.53;4991600;28;20056;-74
2021/12/18 05:20:52;;;;;;;22.98;1.92;;;;;;;5.63;100.00;103713.19;4991444;28;20046;-73
2021/12/18 05:23:18;;;;;;;20.42;1.92;;;;;;;5.50;100.00;103697.50;4991525;28;20474;-75
2021/12/18 05:25:46;;;;;;;19.77;3.03;;;;;;;5.47;100.00;103703.09;5006891;28;20037;-74
2021/12/18 05:28:13;;;;;;;29.35;3.17;;;;;;;5.43;100.00;103695.53;4991438;28;20033;-75
2021/12/18 05:30:39;;;;;;;14.88;1.50;;;;;;;5.29;100.00;103678.16;4992464;28;20482;-76
2021/12/18 05:33:05;;;;;;;27.42;1.60;;;;;;;5.27;100.00;103693.44;4991592;28;20136;-74
2021/12/18 05:35:35;;;;;;;13.45;1.77;;;;;;;5.13;100.00;103684.06;4991826;28;20109;-76
2021/12/18 05:38:06;;;;;;;15.35;1.20;;;;;;;5.08;100.00;103694.25;4996538;28;20045;-76
2021/12/18 05:40:33;;;;;;;32.40;1.40;;;;;;;5.01;100.00;103701.13;5000415;28;20064;-76
2021/12/18 05:42:59;;;;;;;10.38;0.82;;;;;;;4.94;100.00;103706.13;4991690;28;21294;-75
2021/12/18 05:45:27;;;;;;;22.73;1.25;;;;;;;4.83;100.00;103708.94;4991654;28;20053;-75
2021/12/18 05:47:57;;;;;;;6.85;1.10;;;;;;;4.79;100.00;103697.69;4991114;28;20045;-76
2021/12/18 05:50:27;;;;;;;18.10;3.33;;;;;;;4.79;100.00;103705.69;4991167;28;20120;-76
2021/12/18 05:52:54;;;;;;;13.68;1.30;;;;;;;4.70;100.00;103703.00;5005785;28;20103;-75
2021/12/18 05:55:24;;;;;;;4.25;0.70;;;;;;;4.58;100.00;103696.97;4991285;28;20038;-76
2021/12/18 05:57:49;;;;;;;11.25;1.63;;;;;;;4.59;100.00;103703.13;4996786;28;20053;-76
2021/12/18 06:00:16;;;;;;;11.50;1.30;;;;;;;4.51;100.00;103698.47;4990544;28;20064;-76
2021/12/18 06:02:44;;;;;;;10.45;1.10;;;;;;;4.43;100.00;103700.97;4991454;28;20876;-74
2021/12/18 06:05:12;;;;;;;5.70;1.02;;;;;;;4.34;100.00;103707.09;4990380;28;20108;-74
2021/12/18 06:10:16;;;;;;;12.30;1.23;;;;;;;4.14;100.00;103693.69;5000075;28;20175;-75
2021/12/18 06:12:42;;;;;;;20.45;2.40;;;;;;;4.27;100.00;103711.25;4991077;28;20037;-74
2021/12/18 06:15:10;;;;;;;14.85;2.35;;;;;;;4.23;100.00;103710.66;4991502;28;20038;-75
2021/12/18 06:17:38;;;;;;;17.50;2.05;;;;;;;4.28;100.00;103708.44;4996649;28;20065;-74
2021/12/18 06:20:06;;;;;;;10.75;1.50;;;;;;;4.27;100.00;103706.78;4993487;28;20045;-74
2021/12/18 06:22:32;;;;;;;11.30;1.40;;;;;;;4.28;100.00;103707.59;4992289;28;20139;-73
2021/12/18 06:24:57;;;;;;;18.20;1.65;;;;;;;4.20;100.00;103706.44;4991445;28;20396;-75
2021/12/18 06:27:25;;;;;;;15.93;1.30;;;;;;;4.19;100.00;103711.91;4991577;28;20113;-74
2021/12/18 06:29:51;;;;;;;12.57;1.40;;;;;;;4.17;100.00;103711.22;4990971;28;20090;-75
2021/12/18 06:32:19;;;;;;;9.82;1.33;;;;;;;4.19;100.00;103706.59;4994610;28;20094;-75
2021/12/18 06:34:44;;;;;;;11.40;1.30;;;;;;;4.21;100.00;103708.13;4989603;28;20026;-74
2021/12/18 06:37:10;;;;;;;9.60;1.10;;;;;;;4.19;100.00;103703.94;4990427;28;20511;-75
2021/12/18 06:39:36;;;;;;;19.40;1.50;;;;;;;4.24;100.00;103711.53;4991070;28;20104;-75
2021/12/18 06:42:01;;;;;;;17.20;1.48;;;;;;;4.24;100.00;103711.53;4996511;28;20061;-75
2021/12/18 06:44:32;;;;;;;23.23;2.13;;;;;;;4.27;100.00;103717.41;4991938;28;20064;-75
2021/12/18 06:46:57;;;;;;;11.35;1.40;;;;;;;4.29;100.00;103719.91;4998277;28;20131;-74
2021/12/18 06:49:25;;;;;;;23.88;1.80;;;;;;;4.17;100.00;103711.22;4994155;28;20037;-75
2021/12/18 06:51:51;;;;;;;19.63;2.55;;;;;;;4.25;100.00;103716.69;4994827;28;20446;-75
2021/12/18 06:54:16;;;;;;;23.42;2.22;;;;;;;4.27;100.00;103714.75;4995025;28;20140;-75
2021/12/18 06:56:42;;;;;;;19.70;1.67;;;;;;;4.34;100.00;103718.56;4977356;28;20030;-75
2021/12/18 06:59:07;;;;;;;54.25;1.85;;;;;;;4.26;100.00;103712.22;4998893;28;20036;-75
2021/12/18 07:01:35;;;;;;;26.65;1.95;;;;;;;4.33;100.00;103716.03;4995758;28;20513;-75
2021/12/18 07:04:01;;;;;;;44.33;2.00;;;;;;;4.34;100.00;103715.06;4998054;28;20030;-75
2021/12/18 07:06:28;;;;;;;23.55;1.73;;;;;;;4.41;100.00;103714.41;4991466;28;20116;-76
2021/12/18 07:08:56;;;;;;;37.25;2.38;;;;;;;4.40;100.00;103711.88;4995041;28;20032;-75
2021/12/18 07:11:22;;;;;;;22.00;2.08;;;;;;;4.45;100.00;103714.97;4998789;28;20727;-74
2021/12/18 07:13:50;;;;;;;25.33;2.40;;;;;;;4.44;100.00;103705.31;5009456;28;20036;-75
2021/12/18 07:16:17;;;;;;;21.40;3.13;;;;;;;4.53;100.00;103709.81;4993342;28;20576;-75
2021/12/18 07:18:43;;;;;;;13.90;3.03;;;;;;;4.53;100.00;103707.16;4993673;28;20057;-74
2021/12/18 07:21:13;;;;;;;14.57;3.72;;;;;;;4.55;100.00;103710.50;4994631;28;20176;-75
2021/12/18 07:23:40;;;;;;;14.77;2.88;;;;;;;4.55;100.00;103715.81;5008448;28;20107;-74
2021/12/18 07:26:07;;;;;;;23.27;3.67;;;;;;;4.46;100.00;103714.81;4994685;28;20037;-74
2021/12/18 07:28:35;;;;;;;25.02;3.78;;;;;;;4.47;100.00;103718.31;4992426;28;20036;-75
2021/12/18 07:31:01;;;;;;;47.15;5.53;;;;;;;4.41;100.00;103717.06;4998859;28;20034;-75
2021/12/18 07:33:27;;;;;;;24.98;4.75;;;;;;;4.42;100.00;103713.41;4993703;28;20053;-74
2021/12/18 07:35:52;;;;;;;24.33;4.18;;;;;;;4.38;100.00;103708.50;4994388;28;20030;-74
2021/12/18 07:38:20;;;;;;;13.05;3.95;;;;;;;4.41;100.00;103721.53;4994796;28;20200;-76
2021/12/18 07:40:48;;;;;;;14.05;4.00;;;;;;;4.37;100.00;103720.09;4993782;28;20788;-75
2021/12/18 07:43:16;;;;;;;27.80;4.00;;;;;;;4.32;100.00;103720.50;4997575;28;20045;-74
2021/12/18 07:45:41;;;;;;;39.05;4.53;;;;;;;4.30;100.00;103709.16;4999286;28;20479;-74
2021/12/18 07:48:07;;;;;;;25.02;3.72;;;;;;;4.31;100.00;103716.16;4996657;28;20046;-75
2021/12/18 07:50:32;;;;;;;36.47;4.00;;;;;;;4.36;100.00;103718.41;4992978;28;20056;-75
2021/12/18 07:53:00;;;;;;;42.92;4.22;;;;;;;4.36;100.00;103705.13;4983043;28;20049;-76
2021/12/18 07:55:28;;;;;;;47.88;5.43;;;;;;;4.34;100.00;103691.13;4985684;28;20034;-77
2021/12/18 07:57:54;;;;;;;29.23;4.38;;;;;;;4.40;100.00;103706.56;4993612;28;20030;-76
2021/12/18 08:00:20;;;;;;;50.25;4.88;;;;;;;4.43;100.00;103704.47;4994688;28;20029;-75
2021/12/18 08:02:48;;;;;;;33.65;4.63;;;;;;;4.48;100.00;103704.06;4994119;28;20029;-75
2021/12/18 08:05:14;;;;;;;35.42;4.80;;;;;;;4.48;100.00;103704.06;4992672;28;20033;-76
2021/12/18 08:07:40;;;;;;;32.63;4.53;;;;;;;4.52;100.00;103697.50;4981469;28;20424;-76
2021/12/18 08:10:09;;;;;;;24.33;4.88;;;;;;;4.52;100.00;103702.81;5007777;28;20072;-76
2021/12/18 08:12:36;;;;;;;36.20;6.03;;;;;;;4.49;100.00;103706.59;4993220;28;20137;-76
2021/12/18 08:15:06;;;;;;;44.38;6.40;;;;;;;4.47;100.00;103694.38;4993062;28;20033;-75
2021/12/18 08:17:32;;;;;;;32.63;6.47;;;;;;;4.49;100.00;103701.28;5006963;28;20041;-76
2021/12/18 08:20:00;;;;;;;45.30;8.63;;;;;;;4.51;100.00;103701.13;4992847;28;20048;-75
2021/12/18 08:22:25;;;;;;;37.38;7.45;;;;;;;4.38;100.00;103685.41;4998481;28;20485;-75
2021/12/18 08:24:56;;;;;;;38.30;6.75;;;;;;;4.68;100.00;103718.25;4992234;28;20133;-76
2021/12/18 08:27:21;;;;;;;59.58;7.78;;;;;;;4.72;100.00;103722.31;4996093;28;20091;-76
2021/12/18 08:29:46;;;;;;;28.45;6.63;;;;;;;4.70;100.00;103717.13;5001279;28;20129;-76
2021/12/18 08:32:15;;;;;;;45.47;7.22;;;;;;;4.76;100.00;103718.44;4992783;28;20243;-76
2021/12/18 08:34:40;;;;;;;31.02;7.45;;;;;;;4.79;100.00;103718.97;4992478;28;20046;-76
2021/12/18 08:37:06;;;;;;;24.00;6.65;;;;;;;4.78;100.00;103711.97;4992433;28;20069;-76
2021/12/18 08:39:35;;;;;;;30.33;6.18;;;;;;;4.82;100.00;103722.38;4990968;28;20045;-76
2021/12/18 08:42:04;;;;;;;38.28;6.43;;;;;;;4.81;100.00;103721.53;4991756;28;20533;-76
2021/12/18 08:44:31;;;;;;;34.58;6.47;;;;;;;4.76;100.00;103711.28;4991049;28;20410;-75
2021/12/18 08:46:56;;;;;;;34.33;6.97;;;;;;;4.84;100.00;103715.09;4991697;28;20057;-76
2021/12/18 08:49:24;;;;;;;32.38;6.65;;;;;;;4.84;100.00;103723.06;4992089;28;20033;-76
2021/12/18 08:51:52;;;;;;;35.97;6.82;;;;;;;4.85;100.00;103717.59;4990480;28;20030;-75
2021/12/18 08:54:17;;;;;;;61.63;9.65;;;;;;;4.93;100.00;103716.94;4995261;28;20045;-75
2021/12/18 08:56:45;;;;;;;52.45;8.93;;;;;;;4.96;100.00;103713.97;4991972;28;20053;-76
2021/12/18 08:59:11;;;;;;;77.15;9.10;;;;;;;4.94;100.00;103721.25;4991897;28;20033;-75
2021/12/18 09:01:36;;;;;;;51.13;9.05;;;;;;;4.95;100.00;103723.78;4992103;28;20045;-76
2021/12/18 09:04:05;;;;;;;73.10;8.93;;;;;;;4.90;100.00;103723.38;4990997;28;20245;-76
2021/12/18 09:06:30;;;;;;;54.08;9.25;;;;;;;4.91;100.00;103721.56;5006491;28;20038;-76
2021/12/18 09:08:56;;;;;;;54.08;8.70;;;;;;;4.86;100.00;103708.66;5006819;28;20200;-75
2021/12/18 09:11:24;;;;;;;64.43;9.43;;;;;;;4.91;100.00;103722.38;4992113;28;20336;-75
2021/12/18 09:13:52;;;;;;;44.05;8.43;;;;;;;4.92;100.00;103717.91;4991057;28;20093;-74
2021/12/18 09:16:20;;;;;;;59.58;8.50;;;;;;;4.95;100.00;103722.94;4991556;28;20136;-75
2021/12/18 09:18:45;;;;;;;40.72;6.53;;;;;;;4.94;100.00;103721.25;5000714;28;20327;-75
2021/12/18 09:21:11;;;;;;;46.70;6.63;;;;;;;4.99;100.00;103719.03;4992572;28;20148;-75
2021/12/18 09:23:39;;;;;;;46.58;6.82;;;;;;;5.01;100.00;103717.91;4991883;28;20052;-75
2021/12/18 09:26:06;;;;;;;30.70;5.50;;;;;;;5.05;100.00;103726.50;4992440;28;20556;-74
2021/12/18 09:28:32;;;;;;;31.90;7.00;;;;;;;5.00;100.00;103713.59;4989354;28;20764;-77
2021/12/18 09:31:00;;;;;;;35.28;7.57;;;;;;;5.03;100.00;103715.13;4989494;28;20119;-75
2021/12/18 09:33:30;;;;;;;25.83;7.53;;;;;;;5.10;100.00;103718.91;4987667;28;20087;-75
2021/12/18 09:35:56;;;;;;;27.27;6.85;;;;;;;5.13;100.00;103726.63;4990207;28;20037;-76
2021/12/18 09:38:24;;;;;;;32.55;7.15;;;;;;;5.15;100.00;103716.69;4988985;28;20061;-76
2021/12/18 09:40:49;;;;;;;21.77;6.22;;;;;;;5.16;100.00;103723.69;4989800;28;20034;-76
2021/12/18 09:43:15;;;;;;;18.15;6.35;;;;;;;5.10;100.00;103710.09;4993667;28;20040;-76
2021/12/18 09:45:41;;;;;;;13.98;5.72;;;;;;;5.02;100.00;103710.78;4998171;28;20422;-75
2021/12/18 09:48:07;;;;;;;12.98;4.30;;;;;;;5.02;100.00;103710.78;4976471;28;20113;-74
2021/12/18 09:50:35;;;;;;;11.88;4.10;;;;;;;4.95;100.00;103712.31;4989268;28;20112;-74
2021/12/18 09:53:05;;;;;;;14.65;4.75;;;;;;;5.02;100.00;103708.13;4989632;28;20432;-75
2021/12/18 09:55:33;;;;;;;16.52;4.85;;;;;;;5.00;100.00;103705.59;4989519;28;20505;-74
2021/12/18 09:58:01;;;;;;;18.67;5.60;;;;;;;4.98;100.00;103702.25;4988261;28;20130;-75
2021/12/18 10:00:29;;;;;;;17.50;5.30;;;;;;;5.01;100.00;103706.44;4988732;28;20148;-74
2021/12/18 10:02:55;;;;;;;12.85;5.10;;;;;;;4.92;100.00;103696.63;4989005;28;20123;-74
2021/12/18 10:05:35;;;;;;;14.23;5.03;;;;;;;5.02;100.00;103705.44;5003542;28;20157;-74
2021/12/18 10:08:08;;;;;;;47.45;6.53;;;;;;;5.00;100.00;103710.09;4987664;28;20681;-75
2021/12/18 10:10:37;;;;;;;40.03;7.05;;;;;;;4.95;100.00;103710.47;4989303;28;20505;-74
2021/12/18 10:13:08;;;;;;;22.70;6.32;;;;;;;5.07;100.00;103711.22;5004320;28;20224;-75
2021/12/18 10:15:36;;;;;;;35.17;6.70;;;;;;;5.08;100.00;103715.56;4989149;28;20148;-75
2021/12/18 10:18:10;;;;;;;27.55;6.22;;;;;;;5.13;100.00;103700.03;4989420;28;20544;-75
2021/12/18 10:20:37;;;;;;;29.10;6.25;;;;;;;5.22;100.00;103709.00;5004408;28;21853;-77
2021/12/18 10:23:05;;;;;;;23.70;5.80;;;;;;;5.27;100.00;103706.75;4987633;28;20033;-74
2021/12/18 10:25:37;;;;;;;26.55;6.75;;;;;;;5.32;100.00;103694.69;4988033;28;20055;-73
2021/12/18 10:28:15;;;;;;;15.18;6.28;;;;;;;5.31;100.00;103706.34;4991753;28;20124;-75
2021/12/18 10:30:55;;;;;;;21.40;6.60;;;;;;;5.29;100.00;103700.31;4998053;28;20037;-74
2021/12/18 10:33:28;;;;;;;18.25;6.25;;;;;;;5.35;100.00;103699.72;5002740;28;20485;-74
2021/12/18 10:35:56;;;;;;;22.38;6.80;;;;;;;5.39;100.00;103694.97;4989076;28;20038;-74
2021/12/18 10:38:49;;;;;;;18.40;6.88;;;;;;;5.45;100.00;103693.56;4993113;28;20033;-74
2021/12/18 10:41:26;;;;;;;20.75;9.20;;;;;;;5.45;100.00;103682.91;4989541;28;20048;-74
2021/12/18 10:43:55;;;;;;;22.98;10.55;;;;;;;5.51;100.00;103699.16;5002564;28;20037;-75
2021/12/18 10:46:21;;;;;;;20.45;10.52;;;;;;;5.49;100.00;103679.84;4988590;28;20097;-75
2021/12/18 10:49:01;;;;;;;19.70;9.38;;;;;;;5.50;100.00;103694.00;4988500;28;20540;-74
2021/12/18 10:51:29;;;;;;;23.30;7.85;;;;;;;5.51;100.00;103691.19;4990023;28;20041;-75
2021/12/18 10:54:06;;;;;;;18.02;7.97;;;;;;;5.46;100.00;103685.44;4990085;28;20057;-75
2021/12/18 10:56:40;;;;;;;16.33;7.68;;;;;;;5.54;100.00;103682.09;4994869;28;20052;-74
2021/12/18 10:59:22;;;;;;;22.20;10.02;;;;;;;5.61;100.00;103683.16;4989693;28;20037;-75
2021/12/18 11:01:51;;;;;;;;;;;;;;;5.61;100.00;103688.50;5006070;28;20752;-75
2021/12/18 11:04:34;;;;;;;17.77;7.45;;;;;;;5.61;100.00;103672.53;4990575;28;20009;-75
2021/12/18 11:07:30;;;;;;;16.63;7.45;;;;;;;5.64;100.00;103664.25;4988366;28;20025;-74
2021/12/18 11:10:12;;;;;;;17.02;7.38;;;;;;;5.65;100.00;103673.94;5004692;28;20512;-75
2021/12/18 11:15:22;;;;;;;13.82;6.15;;;;;;;5.77;100.00;103678.09;4990866;28;21073;-74
2021/12/18 11:17:48;;;;;;;14.23;5.75;;;;;;;5.66;100.00;103670.28;4992028;28;20100;-74
2021/12/18 11:20:18;;;;;;;15.15;6.43;;;;;;;5.66;100.00;103680.94;4993968;28;20040;-74
2021/12/18 11:22:45;;;;;;;15.02;6.80;;;;;;;5.76;100.00;103660.44;4989702;28;20056;-74
2021/12/18 11:25:12;;;;;;;13.15;6.03;;;;;;;5.81;100.00;103671.50;5004850;28;20037;-74
2021/12/18 11:27:39;;;;;;;13.98;5.60;;;;;;;5.81;100.00;103673.34;4998382;28;20038;-75
2021/12/18 11:30:15;;;;;;;12.35;5.30;;;;;;;5.86;100.00;103666.59;4991353;28;20106;-74
2021/12/18 11:32:45;;;;;;;19.75;4.85;;;;;;;5.87;100.00;103668.28;5009139;28;20033;-75
2021/12/18 11:35:15;;;;;;;9.60;4.28;;;;;;;5.84;100.00;103660.56;5007759;28;20064;-75
2021/12/18 11:37:43;;;;;;;7.70;3.97;;;;;;;5.76;100.00;103654.28;5001224;28;20034;-75
2021/12/18 11:40:19;;;;;;;5.72;3.38;;;;;;;5.79;100.00;103654.84;4993622;28;20049;-74
2021/12/18 11:42:45;;;;;;;6.25;3.00;;;;;;;5.85;100.00;103640.06;4998665;28;20034;-77
2021/12/18 11:45:12;;;;;;;6.78;3.40;;;;;;;5.85;100.00;103648.91;4992912;28;20052;-75
2021/12/18 11:47:44;;;;;;;6.22;3.25;;;;;;;5.85;100.00;103645.41;4990998;28;20124;-75
2021/12/18 11:50:36;;;;;;;6.20;3.55;;;;;;;5.91;100.00;103647.53;4975755;28;20038;-75
2021/12/18 11:53:19;;;;;;;6.60;3.30;;;;;;;5.93;100.00;103650.03;4997990;28;20100;-75
2021/12/18 11:55:49;;;;;;;6.35;2.97;;;;;;;5.98;100.00;103645.13;4991828;28;20037;-76
2021/12/18 11:58:21;;;;;;;6.15;2.70;;;;;;;5.97;100.00;103646.13;5007121;28;20045;-76
2021/12/18 12:00:56;;;;;;;;;;;;;;;5.91;100.00;103647.53;4977332;28;20044;-76
2021/12/18 12:03:33;;;;;;;6.47;3.28;;;;;;;5.94;100.00;103633.91;4999112;28;19924;-76
2021/12/18 12:06:00;;;;;;;6.20;3.47;;;;;;;5.97;100.00;103622.13;4996612;28;20045;-76
2021/12/18 12:08:36;;;;;;;5.85;3.75;;;;;;;6.13;100.00;103630.34;5007961;28;20038;-75
2021/12/18 12:11:23;;;;;;;5.10;3.50;;;;;;;6.09;100.00;103624.44;4993699;28;20377;-76